sensor_id;sensor_type;location;lat;lon;timestamp;temperature;humidity
2889;DHT22;1453;42.708;23.282;2022-12-13T00:01:32;0.10;99.90
2889;DHT22;1453;42.708;23.282;2022-12-13T00:04:00;0.00;99.90
2889;DHT22;1453;42.708;23.282;2022-12-13T00:06:28;-0.10;99.90
2889;DHT22;1453;42.708;23.282;2022-12-13T00:08:55;-0.10;99.90
2889;DHT22;1453;42.708;23.282;2022-12-13T00:11:21;0.00;99.90
2889;DHT22;1453;42.708;23.282;2022-12-13T00:13:47;-0.10;99.90
2889;DHT22;1453;42.708;23.282;2022-12-13T00:16:19;-0.10;99.90
2889;DHT22;1453;42.708;23.282;2022-12-13T00:18:54;-0.30;99.90
2889;DHT22;1453;42.708;23.282;2022-12-13T00:21:24;-0.20;99.90
2889;DHT22;1453;42.708;23.282;2022-12-13T00:23:52;-0.30;99.90
2889;DHT22;1453;42.708;23.282;2022-12-13T00:26:20;-0.20;99.90
2889;DHT22;1453;42.708;23.282;2022-12-13T00:28:48;-0.30;99.90
2889;DHT22;1453;42.708;23.282;2022-12-13T00:31:17;-0.20;99.90
2889;DHT22;1453;42.708;23.282;2022-12-13T00:33:43;-0.20;99.90
2889;DHT22;1453;42.708;23.282;2022-12-13T00:36:09;-0.10;99.90
2889;DHT22;1453;42.708;23.282;2022-12-13T00:38:36;-0.30;99.90
2889;DHT22;1453;42.708;23.282;2022-12-13T00:41:17;-0.50;99.90
2889;DHT22;1453;42.708;23.282;2022-12-13T00:43:43;-0.40;99.90
2889;DHT22;1453;42.708;23.282;2022-12-13T00:46:14;-0.30;99.90
2889;DHT22;1453;42.708;23.282;2022-12-13T00:48:42;-0.10;99.90
2889;DHT22;1453;42.708;23.282;2022-12-13T00:51:09;-0.10;99.90
2889;DHT22;1453;42.708;23.282;2022-12-13T00:53:36;-0.30;99.90
2889;DHT22;1453;42.708;23.282;2022-12-13T00:56:03;-0.10;99.90
2889;DHT22;1453;42.708;23.282;2022-12-13T00:58:29;-0.30;99.90
2889;DHT22;1453;42.708;23.282;2022-12-13T01:01:10;-0.30;99.90
2889;DHT22;1453;42.708;23.282;2022-12-13T01:03:38;-0.40;99.90
2889;DHT22;1453;42.708;23.282;2022-12-13T01:06:12;-0.40;99.90
2889;DHT22;1453;42.708;23.282;2022-12-13T01:08:40;-0.40;99.90
2889;DHT22;1453;42.708;23.282;2022-12-13T01:11:07;-0.40;99.90
2889;DHT22;1453;42.708;23.282;2022-12-13T01:13:33;-0.50;99.90
2889;DHT22;1453;42.708;23.282;2022-12-13T01:16:01;-0.30;99.90
2889;DHT22;1453;42.708;23.282;2022-12-13T01:18:28;-0.60;99.90
2889;DHT22;1453;42.708;23.282;2022-12-13T01:21:01;-0.50;99.90
2889;DHT22;1453;42.708;23.282;2022-12-13T01:23:29;-0.50;99.90
2889;DHT22;1453;42.708;23.282;2022-12-13T01:25:55;-0.70;99.90
2889;DHT22;1453;42.708;23.282;2022-12-13T01:28:22;-0.80;99.90
2889;DHT22;1453;42.708;23.282;2022-12-13T01:30:56;-0.80;99.90
2889;DHT22;1453;42.708;23.282;2022-12-13T01:33:24;-0.90;99.90
2889;DHT22;1453;42.708;23.282;2022-12-13T01:35:50;-0.60;99.90
2889;DHT22;1453;42.708;23.282;2022-12-13T01:38:16;-0.60;99.90
2889;DHT22;1453;42.708;23.282;2022-12-13T01:40:44;-0.40;99.90
2889;DHT22;1453;42.708;23.282;2022-12-13T01:43:12;-0.50;99.90
2889;DHT22;1453;42.708;23.282;2022-12-13T01:45:39;-0.50;99.90
2889;DHT22;1453;42.708;23.282;2022-12-13T01:48:13;-0.40;99.90
2889;DHT22;1453;42.708;23.282;2022-12-13T01:50:46;-0.40;99.90
2889;DHT22;1453;42.708;23.282;2022-12-13T01:53:17;-0.40;99.90
2889;DHT22;1453;42.708;23.282;2022-12-13T01:55:49;-0.40;99.90
2889;DHT22;1453;42.708;23.282;2022-12-13T01:58:19;-0.30;99.90
2889;DHT22;1453;42.708;23.282;2022-12-13T02:00:46;-0.40;99.90
2889;DHT22;1453;42.708;23.282;2022-12-13T02:03:13;-0.50;99.90
2889;DHT22;1453;42.708;23.282;2022-12-13T02:05:49;-0.60;99.90
2889;DHT22;1453;42.708;23.282;2022-12-13T02:08:19;-0.60;99.90
2889;DHT22;1453;42.708;23.282;2022-12-13T02:10:44;-0.60;99.90
2889;DHT22;1453;42.708;23.282;2022-12-13T02:13:11;-0.50;99.90
2889;DHT22;1453;42.708;23.282;2022-12-13T02:16:04;-0.40;99.90
2889;DHT22;1453;42.708;23.282;2022-12-13T02:30:18;-0.30;99.90
2889;DHT22;1453;42.708;23.282;2022-12-13T02:36:27;-0.60;99.90
2889;DHT22;1453;42.708;23.282;2022-12-13T02:44:25;-0.50;99.90
2889;DHT22;1453;42.708;23.282;2022-12-13T02:47:00;-0.60;99.90
2889;DHT22;1453;42.708;23.282;2022-12-13T02:49:32;-0.70;99.90
2889;DHT22;1453;42.708;23.282;2022-12-13T02:52:02;-0.70;99.90
2889;DHT22;1453;42.708;23.282;2022-12-13T02:54:29;-0.80;99.90
2889;DHT22;1453;42.708;23.282;2022-12-13T02:56:56;-0.60;99.90
2889;DHT22;1453;42.708;23.282;2022-12-13T02:59:30;-0.60;99.90
2889;DHT22;1453;42.708;23.282;2022-12-13T03:02:03;-0.50;99.90
2889;DHT22;1453;42.708;23.282;2022-12-13T03:08:29;-0.70;99.90
2889;DHT22;1453;42.708;23.282;2022-12-13T03:11:10;-0.90;99.90
2889;DHT22;1453;42.708;23.282;2022-12-13T03:13:43;-1.00;99.90
2889;DHT22;1453;42.708;23.282;2022-12-13T03:18:46;-1.00;99.90
2889;DHT22;1453;42.708;23.282;2022-12-13T03:21:13;-1.10;99.90
2889;DHT22;1453;42.708;23.282;2022-12-13T03:23:39;-1.00;99.90
2889;DHT22;1453;42.708;23.282;2022-12-13T03:26:11;-1.10;99.90
2889;DHT22;1453;42.708;23.282;2022-12-13T03:28:39;-1.20;99.90
2889;DHT22;1453;42.708;23.282;2022-12-13T03:31:05;-1.30;99.90
2889;DHT22;1453;42.708;23.282;2022-12-13T03:33:31;-1.30;99.90
2889;DHT22;1453;42.708;23.282;2022-12-13T03:35:57;-1.30;99.90
2889;DHT22;1453;42.708;23.282;2022-12-13T03:38:24;-1.20;99.90
2889;DHT22;1453;42.708;23.282;2022-12-13T03:40:57;-1.30;99.90
2889;DHT22;1453;42.708;23.282;2022-12-13T03:43:24;-1.20;99.90
2889;DHT22;1453;42.708;23.282;2022-12-13T03:45:51;-1.40;99.90
2889;DHT22;1453;42.708;23.282;2022-12-13T03:48:20;-1.50;99.90
2889;DHT22;1453;42.708;23.282;2022-12-13T03:50:47;-1.60;99.90
2889;DHT22;1453;42.708;23.282;2022-12-13T03:53:13;-1.60;99.90
2889;DHT22;1453;42.708;23.282;2022-12-13T03:55:39;-1.90;99.90
2889;DHT22;1453;42.708;23.282;2022-12-13T03:58:05;-2.00;99.90
2889;DHT22;1453;42.708;23.282;2022-12-13T04:00:31;-2.30;99.90
2889;DHT22;1453;42.708;23.282;2022-12-13T04:02:56;-2.20;99.90
2889;DHT22;1453;42.708;23.282;2022-12-13T04:05:22;-2.20;99.90
2889;DHT22;1453;42.708;23.282;2022-12-13T04:07:48;-2.20;99.90
2889;DHT22;1453;42.708;23.282;2022-12-13T04:10:14;-1.80;99.90
2889;DHT22;1453;42.708;23.282;2022-12-13T04:12:40;-1.70;99.90
2889;DHT22;1453;42.708;23.282;2022-12-13T04:15:25;-1.70;99.90
2889;DHT22;1453;42.708;23.282;2022-12-13T04:17:51;-2.00;99.90
2889;DHT22;1453;42.708;23.282;2022-12-13T04:20:17;-2.10;99.90
2889;DHT22;1453;42.708;23.282;2022-12-13T04:22:42;-2.10;99.90
2889;DHT22;1453;42.708;23.282;2022-12-13T04:25:10;-2.10;99.90
2889;DHT22;1453;42.708;23.282;2022-12-13T04:27:36;-2.10;99.90
2889;DHT22;1453;42.708;23.282;2022-12-13T04:30:04;-2.00;99.90
2889;DHT22;1453;42.708;23.282;2022-12-13T04:32:30;-2.00;99.90
2889;DHT22;1453;42.708;23.282;2022-12-13T04:34:56;-2.30;99.90
2889;DHT22;1453;42.708;23.282;2022-12-13T04:37:22;-2.50;99.90
2889;DHT22;1453;42.708;23.282;2022-12-13T04:39:48;-2.30;99.90
2889;DHT22;1453;42.708;23.282;2022-12-13T04:42:15;-2.10;99.90
2889;DHT22;1453;42.708;23.282;2022-12-13T04:44:41;-2.10;99.90
2889;DHT22;1453;42.708;23.282;2022-12-13T04:47:07;-2.10;99.90
2889;DHT22;1453;42.708;23.282;2022-12-13T04:49:33;-2.10;99.90
2889;DHT22;1453;42.708;23.282;2022-12-13T04:51:59;-2.10;99.90
2889;DHT22;1453;42.708;23.282;2022-12-13T04:54:26;-2.10;99.90
2889;DHT22;1453;42.708;23.282;2022-12-13T04:56:52;-2.20;99.90
2889;DHT22;1453;42.708;23.282;2022-12-13T04:59:18;-2.20;99.90
2889;DHT22;1453;42.708;23.282;2022-12-13T05:01:44;-2.30;99.90
2889;DHT22;1453;42.708;23.282;2022-12-13T05:04:09;-2.20;99.90
2889;DHT22;1453;42.708;23.282;2022-12-13T05:06:35;-2.20;99.90
2889;DHT22;1453;42.708;23.282;2022-12-13T05:09:01;-2.10;99.90
2889;DHT22;1453;42.708;23.282;2022-12-13T05:11:27;-2.10;99.90
2889;DHT22;1453;42.708;23.282;2022-12-13T05:13:53;-2.10;99.90
2889;DHT22;1453;42.708;23.282;2022-12-13T05:16:19;-2.20;99.90
2889;DHT22;1453;42.708;23.282;2022-12-13T05:18:45;-2.30;99.90
2889;DHT22;1453;42.708;23.282;2022-12-13T05:21:11;-2.20;99.90
2889;DHT22;1453;42.708;23.282;2022-12-13T05:23:37;-2.20;99.90
2889;DHT22;1453;42.708;23.282;2022-12-13T05:26:05;-2.30;99.90
2889;DHT22;1453;42.708;23.282;2022-12-13T05:28:31;-2.10;99.90
2889;DHT22;1453;42.708;23.282;2022-12-13T05:30:58;-2.10;99.90
2889;DHT22;1453;42.708;23.282;2022-12-13T05:33:31;-2.10;99.90
2889;DHT22;1453;42.708;23.282;2022-12-13T05:35:57;-2.20;99.90
2889;DHT22;1453;42.708;23.282;2022-12-13T05:38:22;-2.20;99.90
2889;DHT22;1453;42.708;23.282;2022-12-13T05:40:48;-2.10;99.90
2889;DHT22;1453;42.708;23.282;2022-12-13T05:43:14;-2.00;99.90
2889;DHT22;1453;42.708;23.282;2022-12-13T05:45:40;-2.20;99.90
2889;DHT22;1453;42.708;23.282;2022-12-13T05:48:08;-2.30;99.90
2889;DHT22;1453;42.708;23.282;2022-12-13T05:50:36;-2.40;99.90
2889;DHT22;1453;42.708;23.282;2022-12-13T05:53:03;-2.10;99.90
2889;DHT22;1453;42.708;23.282;2022-12-13T05:55:30;-2.10;99.90
2889;DHT22;1453;42.708;23.282;2022-12-13T05:57:57;-2.20;99.90
2889;DHT22;1453;42.708;23.282;2022-12-13T06:00:23;-2.10;99.90
2889;DHT22;1453;42.708;23.282;2022-12-13T06:02:49;-2.00;99.90
2889;DHT22;1453;42.708;23.282;2022-12-13T06:05:15;-2.20;99.90
2889;DHT22;1453;42.708;23.282;2022-12-13T06:07:40;-2.10;99.90
2889;DHT22;1453;42.708;23.282;2022-12-13T06:10:07;-1.80;99.90
2889;DHT22;1453;42.708;23.282;2022-12-13T06:12:34;-2.20;99.90
2889;DHT22;1453;42.708;23.282;2022-12-13T06:15:00;-2.00;99.90
2889;DHT22;1453;42.708;23.282;2022-12-13T06:17:35;-2.10;99.90
2889;DHT22;1453;42.708;23.282;2022-12-13T06:20:04;-1.90;99.90
2889;DHT22;1453;42.708;23.282;2022-12-13T06:22:31;-1.90;99.90
2889;DHT22;1453;42.708;23.282;2022-12-13T06:24:57;-2.10;99.90
2889;DHT22;1453;42.708;23.282;2022-12-13T06:27:23;-1.90;99.90
2889;DHT22;1453;42.708;23.282;2022-12-13T06:29:49;-1.80;99.90
2889;DHT22;1453;42.708;23.282;2022-12-13T06:32:14;-1.70;99.90
2889;DHT22;1453;42.708;23.282;2022-12-13T06:34:40;-1.50;99.90
2889;DHT22;1453;42.708;23.282;2022-12-13T06:37:09;-1.80;99.90
2889;DHT22;1453;42.708;23.282;2022-12-13T06:39:36;-1.70;99.90
2889;DHT22;1453;42.708;23.282;2022-12-13T06:42:02;-2.00;99.90
2889;DHT22;1453;42.708;23.282;2022-12-13T06:44:30;-1.80;99.90
2889;DHT22;1453;42.708;23.282;2022-12-13T06:46:57;-1.80;99.90
2889;DHT22;1453;42.708;23.282;2022-12-13T06:49:24;-1.80;99.90
2889;DHT22;1453;42.708;23.282;2022-12-13T06:51:50;-1.90;99.90
2889;DHT22;1453;42.708;23.282;2022-12-13T06:54:16;-1.70;99.90
2889;DHT22;1453;42.708;23.282;2022-12-13T06:56:42;-1.60;99.90
2889;DHT22;1453;42.708;23.282;2022-12-13T06:59:07;-1.70;99.90
2889;DHT22;1453;42.708;23.282;2022-12-13T07:01:33;-1.60;99.90
2889;DHT22;1453;42.708;23.282;2022-12-13T07:03:59;-1.60;99.90
2889;DHT22;1453;42.708;23.282;2022-12-13T07:06:25;-1.60;99.90
2889;DHT22;1453;42.708;23.282;2022-12-13T07:08:56;-1.40;99.90
2889;DHT22;1453;42.708;23.282;2022-12-13T07:11:24;-1.20;99.90
2889;DHT22;1453;42.708;23.282;2022-12-13T07:13:52;-1.10;99.90
2889;DHT22;1453;42.708;23.282;2022-12-13T07:16:19;-1.00;99.90
2889;DHT22;1453;42.708;23.282;2022-12-13T07:18:46;-0.70;99.90
2889;DHT22;1453;42.708;23.282;2022-12-13T07:21:13;-0.50;99.90
2889;DHT22;1453;42.708;23.282;2022-12-13T07:23:40;-0.60;99.90
2889;DHT22;1453;42.708;23.282;2022-12-13T07:26:07;-0.30;99.90
2889;DHT22;1453;42.708;23.282;2022-12-13T07:28:34;-0.10;99.90
2889;DHT22;1453;42.708;23.282;2022-12-13T07:31:03;-0.20;99.90
2889;DHT22;1453;42.708;23.282;2022-12-13T07:33:31;0.20;99.90
2889;DHT22;1453;42.708;23.282;2022-12-13T07:36:05;0.40;99.90
2889;DHT22;1453;42.708;23.282;2022-12-13T07:38:34;0.00;99.90
2889;DHT22;1453;42.708;23.282;2022-12-13T07:41:01;0.10;99.90
2889;DHT22;1453;42.708;23.282;2022-12-13T07:43:27;0.00;99.90
2889;DHT22;1453;42.708;23.282;2022-12-13T07:45:57;0.10;99.90
2889;DHT22;1453;42.708;23.282;2022-12-13T07:48:23;0.40;99.90
2889;DHT22;1453;42.708;23.282;2022-12-13T07:50:53;0.60;99.90
2889;DHT22;1453;42.708;23.282;2022-12-13T07:53:20;0.20;99.90
2889;DHT22;1453;42.708;23.282;2022-12-13T07:55:46;-0.10;99.90
2889;DHT22;1453;42.708;23.282;2022-12-13T07:58:13;0.20;99.90
2889;DHT22;1453;42.708;23.282;2022-12-13T08:00:44;0.20;99.90
2889;DHT22;1453;42.708;23.282;2022-12-13T08:03:11;0.40;99.90
2889;DHT22;1453;42.708;23.282;2022-12-13T08:05:38;0.40;99.90
2889;DHT22;1453;42.708;23.282;2022-12-13T08:08:05;0.50;99.90
2889;DHT22;1453;42.708;23.282;2022-12-13T08:10:32;0.60;99.90
2889;DHT22;1453;42.708;23.282;2022-12-13T08:13:00;0.60;99.90
2889;DHT22;1453;42.708;23.282;2022-12-13T08:15:27;0.60;99.90
2889;DHT22;1453;42.708;23.282;2022-12-13T08:17:56;1.00;99.90
2889;DHT22;1453;42.708;23.282;2022-12-13T08:20:25;1.20;99.90
2889;DHT22;1453;42.708;23.282;2022-12-13T08:22:55;1.20;99.90
2889;DHT22;1453;42.708;23.282;2022-12-13T08:25:22;1.10;99.90
2889;DHT22;1453;42.708;23.282;2022-12-13T08:27:48;1.20;99.90
2889;DHT22;1453;42.708;23.282;2022-12-13T08:30:13;1.30;99.90
2889;DHT22;1453;42.708;23.282;2022-12-13T08:32:39;1.60;99.90
2889;DHT22;1453;42.708;23.282;2022-12-13T08:35:05;2.00;99.90
2889;DHT22;1453;42.708;23.282;2022-12-13T08:37:31;2.20;99.90
2889;DHT22;1453;42.708;23.282;2022-12-13T08:39:57;2.20;99.90
2889;DHT22;1453;42.708;23.282;2022-12-13T08:42:23;2.60;99.90
2889;DHT22;1453;42.708;23.282;2022-12-13T08:44:51;3.30;99.90
2889;DHT22;1453;42.708;23.282;2022-12-13T08:47:18;3.90;99.90
2889;DHT22;1453;42.708;23.282;2022-12-13T08:49:45;4.50;93.70
2889;DHT22;1453;42.708;23.282;2022-12-13T08:52:11;4.50;92.30
2889;DHT22;1453;42.708;23.282;2022-12-13T08:54:37;4.60;94.50
2889;DHT22;1453;42.708;23.282;2022-12-13T08:57:03;5.00;91.00
2889;DHT22;1453;42.708;23.282;2022-12-13T08:59:28;5.30;90.50
2889;DHT22;1453;42.708;23.282;2022-12-13T09:01:54;5.50;88.00
2889;DHT22;1453;42.708;23.282;2022-12-13T09:04:20;6.30;86.00
2889;DHT22;1453;42.708;23.282;2022-12-13T09:06:46;6.40;84.00
2889;DHT22;1453;42.708;23.282;2022-12-13T09:09:12;6.50;79.80
2889;DHT22;1453;42.708;23.282;2022-12-13T09:11:38;7.30;82.80
2889;DHT22;1453;42.708;23.282;2022-12-13T09:14:05;7.30;77.50
2889;DHT22;1453;42.708;23.282;2022-12-13T09:16:32;7.30;76.30
2889;DHT22;1453;42.708;23.282;2022-12-13T09:19:01;7.60;76.70
2889;DHT22;1453;42.708;23.282;2022-12-13T09:21:28;8.20;75.20
2889;DHT22;1453;42.708;23.282;2022-12-13T09:23:54;8.40;72.30
2889;DHT22;1453;42.708;23.282;2022-12-13T09:26:20;8.40;72.00
2889;DHT22;1453;42.708;23.282;2022-12-13T09:28:46;7.90;74.10
2889;DHT22;1453;42.708;23.282;2022-12-13T09:31:15;8.00;73.10
2889;DHT22;1453;42.708;23.282;2022-12-13T09:33:42;8.90;75.00
2889;DHT22;1453;42.708;23.282;2022-12-13T09:36:14;9.30;67.80
2889;DHT22;1453;42.708;23.282;2022-12-13T09:38:42;8.00;62.70
2889;DHT22;1453;42.708;23.282;2022-12-13T09:41:28;7.50;65.80
2889;DHT22;1453;42.708;23.282;2022-12-13T09:44:02;7.00;67.80
2889;DHT22;1453;42.708;23.282;2022-12-13T09:46:38;7.20;67.50
2889;DHT22;1453;42.708;23.282;2022-12-13T09:51:53;8.20;66.70
2889;DHT22;1453;42.708;23.282;2022-12-13T09:54:23;8.10;67.10
2889;DHT22;1453;42.708;23.282;2022-12-13T09:56:50;8.80;66.80
2889;DHT22;1453;42.708;23.282;2022-12-13T09:59:22;9.50;63.20
2889;DHT22;1453;42.708;23.282;2022-12-13T10:01:53;8.80;60.30
2889;DHT22;1453;42.708;23.282;2022-12-13T10:04:20;8.80;62.20
2889;DHT22;1453;42.708;23.282;2022-12-13T10:06:47;8.50;64.30
2889;DHT22;1453;42.708;23.282;2022-12-13T10:09:16;8.50;62.90
2889;DHT22;1453;42.708;23.282;2022-12-13T10:11:51;8.70;64.30
2889;DHT22;1453;42.708;23.282;2022-12-13T10:14:29;8.60;61.20
2889;DHT22;1453;42.708;23.282;2022-12-13T10:17:01;9.00;60.60
2889;DHT22;1453;42.708;23.282;2022-12-13T10:19:35;9.20;62.80
2889;DHT22;1453;42.708;23.282;2022-12-13T10:22:07;9.50;59.80
2889;DHT22;1453;42.708;23.282;2022-12-13T10:24:53;9.90;58.40
2889;DHT22;1453;42.708;23.282;2022-12-13T10:27:27;10.60;58.00
2889;DHT22;1453;42.708;23.282;2022-12-13T10:32:51;9.10;55.90
2889;DHT22;1453;42.708;23.282;2022-12-13T10:35:22;9.00;56.90
2889;DHT22;1453;42.708;23.282;2022-12-13T10:38:21;8.70;55.00
2889;DHT22;1453;42.708;23.282;2022-12-13T10:40:51;9.00;54.30
2889;DHT22;1453;42.708;23.282;2022-12-13T10:48:37;8.00;55.40
2889;DHT22;1453;42.708;23.282;2022-12-13T10:51:13;8.30;57.50
2889;DHT22;1453;42.708;23.282;2022-12-13T10:53:50;8.50;57.30
2889;DHT22;1453;42.708;23.282;2022-12-13T10:56:20;7.90;57.60
2889;DHT22;1453;42.708;23.282;2022-12-13T10:58:49;7.30;56.90
2889;DHT22;1453;42.708;23.282;2022-12-13T11:04:01;9.00;58.40
2889;DHT22;1453;42.708;23.282;2022-12-13T11:06:39;9.90;56.70
2889;DHT22;1453;42.708;23.282;2022-12-13T11:09:32;11.10;54.40
2889;DHT22;1453;42.708;23.282;2022-12-13T11:12:01;10.90;52.40
2889;DHT22;1453;42.708;23.282;2022-12-13T11:14:45;9.90;55.20
2889;DHT22;1453;42.708;23.282;2022-12-13T11:17:18;9.80;54.50
2889;DHT22;1453;42.708;23.282;2022-12-13T11:19:55;10.20;51.40
2889;DHT22;1453;42.708;23.282;2022-12-13T11:22:29;10.30;52.30
2889;DHT22;1453;42.708;23.282;2022-12-13T11:25:02;10.30;52.10
2889;DHT22;1453;42.708;23.282;2022-12-13T11:28:33;10.20;51.10
2889;DHT22;1453;42.708;23.282;2022-12-13T11:40:16;10.60;51.50
2889;DHT22;1453;42.708;23.282;2022-12-13T11:45:41;10.70;51.40
2889;DHT22;1453;42.708;23.282;2022-12-13T11:51:13;10.40;47.40
2889;DHT22;1453;42.708;23.282;2022-12-13T11:54:09;9.80;51.50
2889;DHT22;1453;42.708;23.282;2022-12-13T11:56:42;10.70;52.20
2889;DHT22;1453;42.708;23.282;2022-12-13T12:04:53;11.30;53.10
2889;DHT22;1453;42.708;23.282;2022-12-13T12:07:49;12.20;50.30
2889;DHT22;1453;42.708;23.282;2022-12-13T12:10:37;11.60;49.40
2889;DHT22;1453;42.708;23.282;2022-12-13T12:13:36;10.60;51.40
2889;DHT22;1453;42.708;23.282;2022-12-13T12:16:30;10.40;50.30
2889;DHT22;1453;42.708;23.282;2022-12-13T12:19:26;9.10;51.90
2889;DHT22;1453;42.708;23.282;2022-12-13T12:52:50;10.40;55.70
2889;DHT22;1453;42.708;23.282;2022-12-13T13:02:22;8.30;56.20
2889;DHT22;1453;42.708;23.282;2022-12-13T13:05:05;9.50;54.60
2889;DHT22;1453;42.708;23.282;2022-12-13T13:08:05;9.90;53.30
2889;DHT22;1453;42.708;23.282;2022-12-13T13:10:40;9.80;53.00
2889;DHT22;1453;42.708;23.282;2022-12-13T13:16:02;9.10;54.40
2889;DHT22;1453;42.708;23.282;2022-12-13T13:18:55;8.30;55.70
2889;DHT22;1453;42.708;23.282;2022-12-13T13:26:37;5.40;60.20
2889;DHT22;1453;42.708;23.282;2022-12-13T13:29:29;4.80;63.90
2889;DHT22;1453;42.708;23.282;2022-12-13T13:34:43;4.80;67.40
2889;DHT22;1453;42.708;23.282;2022-12-13T13:42:20;4.30;74.00
2889;DHT22;1453;42.708;23.282;2022-12-13T13:47:17;4.00;75.30
2889;DHT22;1453;42.708;23.282;2022-12-13T14:07:41;3.10;90.40
2889;DHT22;1453;42.708;23.282;2022-12-13T14:10:45;3.30;93.60
2889;DHT22;1453;42.708;23.282;2022-12-13T14:28:51;3.10;99.90
2889;DHT22;1453;42.708;23.282;2022-12-13T14:31:22;3.10;99.90
2889;DHT22;1453;42.708;23.282;2022-12-13T14:33:54;3.00;99.90
2889;DHT22;1453;42.708;23.282;2022-12-13T14:36:31;3.00;99.90
2889;DHT22;1453;42.708;23.282;2022-12-13T14:39:15;2.90;99.90
2889;DHT22;1453;42.708;23.282;2022-12-13T14:41:46;2.80;99.90
2889;DHT22;1453;42.708;23.282;2022-12-13T14:44:24;2.80;99.90
2889;DHT22;1453;42.708;23.282;2022-12-13T14:47:07;2.90;99.90
2889;DHT22;1453;42.708;23.282;2022-12-13T14:49:38;3.00;99.90
2889;DHT22;1453;42.708;23.282;2022-12-13T14:52:20;3.10;99.90
2889;DHT22;1453;42.708;23.282;2022-12-13T14:54:47;3.00;99.90
2889;DHT22;1453;42.708;23.282;2022-12-13T14:57:22;2.90;99.90
2889;DHT22;1453;42.708;23.282;2022-12-13T14:59:52;3.00;99.90
2889;DHT22;1453;42.708;23.282;2022-12-13T15:02:29;3.10;99.90
2889;DHT22;1453;42.708;23.282;2022-12-13T15:04:58;3.20;99.50
2889;DHT22;1453;42.708;23.282;2022-12-13T15:07:32;3.20;98.80
2889;DHT22;1453;42.708;23.282;2022-12-13T15:10:32;3.00;99.90
2889;DHT22;1453;42.708;23.282;2022-12-13T15:13:03;2.80;99.90
2889;DHT22;1453;42.708;23.282;2022-12-13T15:15:35;2.80;99.90
2889;DHT22;1453;42.708;23.282;2022-12-13T15:18:18;2.30;99.90
2889;DHT22;1453;42.708;23.282;2022-12-13T15:20:47;2.10;99.90
2889;DHT22;1453;42.708;23.282;2022-12-13T15:23:25;2.00;99.90
2889;DHT22;1453;42.708;23.282;2022-12-13T15:26:10;1.90;99.90
2889;DHT22;1453;42.708;23.282;2022-12-13T15:28:44;1.90;99.90
2889;DHT22;1453;42.708;23.282;2022-12-13T15:31:11;1.70;99.90
2889;DHT22;1453;42.708;23.282;2022-12-13T15:33:38;1.70;99.90
2889;DHT22;1453;42.708;23.282;2022-12-13T15:36:06;1.40;99.90
2889;DHT22;1453;42.708;23.282;2022-12-13T15:38:42;1.60;99.90
2889;DHT22;1453;42.708;23.282;2022-12-13T15:41:32;1.70;99.90
2889;DHT22;1453;42.708;23.282;2022-12-13T15:44:16;1.90;99.90
2889;DHT22;1453;42.708;23.282;2022-12-13T15:46:47;1.80;99.90
2889;DHT22;1453;42.708;23.282;2022-12-13T15:49:26;2.00;99.90
2889;DHT22;1453;42.708;23.282;2022-12-13T15:52:03;1.90;99.90
2889;DHT22;1453;42.708;23.282;2022-12-13T15:54:32;2.00;99.90
2889;DHT22;1453;42.708;23.282;2022-12-13T15:57:20;2.00;99.90
2889;DHT22;1453;42.708;23.282;2022-12-13T15:59:47;2.00;99.90
2889;DHT22;1453;42.708;23.282;2022-12-13T16:02:26;2.10;99.90
2889;DHT22;1453;42.708;23.282;2022-12-13T16:05:03;2.40;99.90
2889;DHT22;1453;42.708;23.282;2022-12-13T16:07:34;2.50;99.90
2889;DHT22;1453;42.708;23.282;2022-12-13T16:10:05;2.50;99.90
2889;DHT22;1453;42.708;23.282;2022-12-13T16:12:38;2.20;99.90
2889;DHT22;1453;42.708;23.282;2022-12-13T16:15:47;2.20;99.90
2889;DHT22;1453;42.708;23.282;2022-12-13T16:18:19;2.40;99.90
2889;DHT22;1453;42.708;23.282;2022-12-13T16:20:47;2.50;99.90
2889;DHT22;1453;42.708;23.282;2022-12-13T16:23:15;2.70;99.90
2889;DHT22;1453;42.708;23.282;2022-12-13T16:25:41;2.80;99.90
2889;DHT22;1453;42.708;23.282;2022-12-13T16:28:12;3.10;99.90
2889;DHT22;1453;42.708;23.282;2022-12-13T16:33:20;3.00;99.90
2889;DHT22;1453;42.708;23.282;2022-12-13T16:35:47;2.70;99.90
2889;DHT22;1453;42.708;23.282;2022-12-13T16:38:13;2.50;99.90
2889;DHT22;1453;42.708;23.282;2022-12-13T16:40:41;2.50;99.90
2889;DHT22;1453;42.708;23.282;2022-12-13T16:43:21;2.50;99.90
2889;DHT22;1453;42.708;23.282;2022-12-13T16:45:50;2.50;99.90
2889;DHT22;1453;42.708;23.282;2022-12-13T16:48:18;2.30;99.90
2889;DHT22;1453;42.708;23.282;2022-12-13T16:50:47;2.20;99.90
2889;DHT22;1453;42.708;23.282;2022-12-13T16:53:17;2.20;99.90
2889;DHT22;1453;42.708;23.282;2022-12-13T16:55:44;2.30;99.90
2889;DHT22;1453;42.708;23.282;2022-12-13T16:58:15;2.30;99.90
2889;DHT22;1453;42.708;23.282;2022-12-13T17:00:43;2.40;99.90
2889;DHT22;1453;42.708;23.282;2022-12-13T17:03:13;2.40;99.90
2889;DHT22;1453;42.708;23.282;2022-12-13T17:05:41;2.40;99.90
2889;DHT22;1453;42.708;23.282;2022-12-13T17:08:10;2.50;99.90
2889;DHT22;1453;42.708;23.282;2022-12-13T17:10:38;2.40;99.90
2889;DHT22;1453;42.708;23.282;2022-12-13T17:13:04;2.40;99.90
2889;DHT22;1453;42.708;23.282;2022-12-13T17:15:30;2.40;99.90
2889;DHT22;1453;42.708;23.282;2022-12-13T17:17:56;2.40;99.90
2889;DHT22;1453;42.708;23.282;2022-12-13T17:20:22;2.30;99.90
2889;DHT22;1453;42.708;23.282;2022-12-13T17:22:49;2.10;99.90
2889;DHT22;1453;42.708;23.282;2022-12-13T17:25:15;2.00;99.90
2889;DHT22;1453;42.708;23.282;2022-12-13T17:27:41;2.10;99.90
2889;DHT22;1453;42.708;23.282;2022-12-13T17:30:10;2.10;99.90
2889;DHT22;1453;42.708;23.282;2022-12-13T17:32:39;1.80;99.90
2889;DHT22;1453;42.708;23.282;2022-12-13T17:35:05;1.60;99.90
2889;DHT22;1453;42.708;23.282;2022-12-13T17:37:31;1.40;99.90
2889;DHT22;1453;42.708;23.282;2022-12-13T17:39:57;1.30;99.90
2889;DHT22;1453;42.708;23.282;2022-12-13T17:42:23;1.50;99.90
2889;DHT22;1453;42.708;23.282;2022-12-13T17:44:49;1.60;99.90
2889;DHT22;1453;42.708;23.282;2022-12-13T17:47:14;1.40;99.90
2889;DHT22;1453;42.708;23.282;2022-12-13T17:49:40;1.10;99.90
2889;DHT22;1453;42.708;23.282;2022-12-13T17:52:06;0.90;99.90
2889;DHT22;1453;42.708;23.282;2022-12-13T17:54:32;0.90;99.90
2889;DHT22;1453;42.708;23.282;2022-12-13T17:56:58;0.80;99.90
2889;DHT22;1453;42.708;23.282;2022-12-13T17:59:24;1.00;99.90
2889;DHT22;1453;42.708;23.282;2022-12-13T18:01:51;1.00;99.90
2889;DHT22;1453;42.708;23.282;2022-12-13T18:04:18;0.80;99.90
2889;DHT22;1453;42.708;23.282;2022-12-13T18:06:45;0.80;99.90
2889;DHT22;1453;42.708;23.282;2022-12-13T18:09:11;1.00;99.90
2889;DHT22;1453;42.708;23.282;2022-12-13T18:11:38;1.00;99.90
2889;DHT22;1453;42.708;23.282;2022-12-13T18:14:06;1.10;99.90
2889;DHT22;1453;42.708;23.282;2022-12-13T18:16:33;1.10;99.90
2889;DHT22;1453;42.708;23.282;2022-12-13T18:18:59;1.00;99.90
2889;DHT22;1453;42.708;23.282;2022-12-13T18:21:25;1.00;99.90
2889;DHT22;1453;42.708;23.282;2022-12-13T18:23:52;1.10;99.90
2889;DHT22;1453;42.708;23.282;2022-12-13T18:26:18;0.90;99.90
2889;DHT22;1453;42.708;23.282;2022-12-13T18:28:45;0.90;99.90
2889;DHT22;1453;42.708;23.282;2022-12-13T18:31:18;1.00;99.90
2889;DHT22;1453;42.708;23.282;2022-12-13T18:33:47;1.00;99.90
2889;DHT22;1453;42.708;23.282;2022-12-13T18:36:14;1.00;99.90
2889;DHT22;1453;42.708;23.282;2022-12-13T18:38:41;1.00;99.90
2889;DHT22;1453;42.708;23.282;2022-12-13T18:41:15;0.80;99.90
2889;DHT22;1453;42.708;23.282;2022-12-13T18:43:43;0.80;99.90
2889;DHT22;1453;42.708;23.282;2022-12-13T18:46:11;0.60;99.90
2889;DHT22;1453;42.708;23.282;2022-12-13T18:48:38;0.70;99.90